sensor_id;sensor_type;location;lat;lon;timestamp;P1;durP1;ratioP1;P2;durP2;ratioP2
55756;SDS011;41676;44.610;44.078;2023-04-10T00:01:22;8.90;;;7.65;;
55756;SDS011;41676;44.610;44.078;2023-04-10T00:06:23;11.20;;;8.68;;
55756;SDS011;41676;44.610;44.078;2023-04-10T00:11:24;10.50;;;7.38;;
55756;SDS011;41676;44.610;44.078;2023-04-10T00:16:25;15.07;;;7.35;;
55756;SDS011;41676;44.610;44.078;2023-04-10T00:21:26;8.35;;;6.75;;
55756;SDS011;41676;44.610;44.078;2023-04-10T00:26:27;6.70;;;5.80;;
55756;SDS011;41676;44.610;44.078;2023-04-10T00:31:28;8.23;;;6.43;;
55756;SDS011;41676;44.610;44.078;2023-04-10T00:36:30;8.90;;;6.80;;
55756;SDS011;41676;44.610;44.078;2023-04-10T00:41:32;15.82;;;7.45;;
55756;SDS011;41676;44.610;44.078;2023-04-10T00:46:35;7.93;;;6.47;;
55756;SDS011;41676;44.610;44.078;2023-04-10T00:51:37;24.90;;;7.93;;
55756;SDS011;41676;44.610;44.078;2023-04-10T00:56:38;192.15;;;11.30;;
55756;SDS011;41676;44.610;44.078;2023-04-10T01:01:39;60.53;;;9.93;;
55756;SDS011;41676;44.610;44.078;2023-04-10T01:06:57;81.65;;;9.57;;
55756;SDS011;41676;44.610;44.078;2023-04-10T01:18:00;47.58;;;8.73;;
55756;SDS011;41676;44.610;44.078;2023-04-10T01:34:01;70.43;;;9.02;;
55756;SDS011;41676;44.610;44.078;2023-04-10T01:39:20;32.25;;;10.13;;
55756;SDS011;41676;44.610;44.078;2023-04-10T01:44:26;20.33;;;10.02;;
55756;SDS011;41676;44.610;44.078;2023-04-10T01:49:30;69.22;;;9.98;;
55756;SDS011;41676;44.610;44.078;2023-04-10T01:54:32;139.07;;;12.13;;
55756;SDS011;41676;44.610;44.078;2023-04-10T01:59:34;85.63;;;9.82;;
55756;SDS011;41676;44.610;44.078;2023-04-10T02:04:37;64.93;;;9.48;;
55756;SDS011;41676;44.610;44.078;2023-04-10T02:15:03;147.98;;;14.65;;
55756;SDS011;41676;44.610;44.078;2023-04-10T02:20:06;274.52;;;14.25;;
55756;SDS011;41676;44.610;44.078;2023-04-10T02:25:09;113.35;;;11.38;;
55756;SDS011;41676;44.610;44.078;2023-04-10T02:30:10;75.45;;;10.82;;
55756;SDS011;41676;44.610;44.078;2023-04-10T02:35:11;55.25;;;8.25;;
55756;SDS011;41676;44.610;44.078;2023-04-10T02:40:13;151.52;;;12.43;;
55756;SDS011;41676;44.610;44.078;2023-04-10T02:45:13;116.55;;;10.18;;
55756;SDS011;41676;44.610;44.078;2023-04-10T02:50:14;97.70;;;9.18;;
55756;SDS011;41676;44.610;44.078;2023-04-10T02:55:17;97.70;;;9.45;;
55756;SDS011;41676;44.610;44.078;2023-04-10T03:00:18;69.72;;;8.02;;
55756;SDS011;41676;44.610;44.078;2023-04-10T03:05:19;144.05;;;10.20;;
55756;SDS011;41676;44.610;44.078;2023-04-10T03:10:20;114.30;;;8.07;;
55756;SDS011;41676;44.610;44.078;2023-04-10T03:15:20;101.70;;;7.40;;
55756;SDS011;41676;44.610;44.078;2023-04-10T03:20:21;53.92;;;6.05;;
55756;SDS011;41676;44.610;44.078;2023-04-10T03:25:22;27.48;;;5.25;;
55756;SDS011;41676;44.610;44.078;2023-04-10T03:30:23;7.30;;;4.70;;
55756;SDS011;41676;44.610;44.078;2023-04-10T03:35:23;19.08;;;5.47;;
55756;SDS011;41676;44.610;44.078;2023-04-10T03:40:24;40.28;;;5.68;;
55756;SDS011;41676;44.610;44.078;2023-04-10T03:45:25;5.22;;;4.70;;
55756;SDS011;41676;44.610;44.078;2023-04-10T03:50:26;5.78;;;3.90;;
55756;SDS011;41676;44.610;44.078;2023-04-10T03:55:26;9.93;;;4.00;;
55756;SDS011;41676;44.610;44.078;2023-04-10T04:00:27;6.70;;;3.90;;
55756;SDS011;41676;44.610;44.078;2023-04-10T04:05:28;7.63;;;3.80;;
55756;SDS011;41676;44.610;44.078;2023-04-10T04:10:30;8.00;;;4.15;;
55756;SDS011;41676;44.610;44.078;2023-04-10T04:15:30;5.53;;;3.08;;
55756;SDS011;41676;44.610;44.078;2023-04-10T04:20:31;14.52;;;3.33;;
55756;SDS011;41676;44.610;44.078;2023-04-10T04:25:32;6.53;;;3.65;;
55756;SDS011;41676;44.610;44.078;2023-04-10T04:30:32;7.20;;;3.60;;
55756;SDS011;41676;44.610;44.078;2023-04-10T04:35:33;5.43;;;3.20;;
55756;SDS011;41676;44.610;44.078;2023-04-10T04:40:34;6.97;;;4.10;;
55756;SDS011;41676;44.610;44.078;2023-04-10T04:45:35;5.28;;;3.60;;
55756;SDS011;41676;44.610;44.078;2023-04-10T04:50:35;6.35;;;3.60;;
55756;SDS011;41676;44.610;44.078;2023-04-10T04:55:40;6.05;;;4.10;;
55756;SDS011;41676;44.610;44.078;2023-04-10T05:00:41;6.15;;;4.22;;
55756;SDS011;41676;44.610;44.078;2023-04-10T05:05:42;6.20;;;4.10;;
55756;SDS011;41676;44.610;44.078;2023-04-10T05:10:43;7.03;;;3.78;;
55756;SDS011;41676;44.610;44.078;2023-04-10T05:15:44;7.32;;;3.78;;
55756;SDS011;41676;44.610;44.078;2023-04-10T05:20:45;5.68;;;3.83;;
55756;SDS011;41676;44.610;44.078;2023-04-10T05:25:46;7.95;;;3.85;;
55756;SDS011;41676;44.610;44.078;2023-04-10T05:30:47;8.85;;;3.92;;
55756;SDS011;41676;44.610;44.078;2023-04-10T05:35:48;9.63;;;4.38;;
55756;SDS011;41676;44.610;44.078;2023-04-10T05:40:49;11.13;;;4.70;;
55756;SDS011;41676;44.610;44.078;2023-04-10T05:45:49;9.13;;;4.85;;
55756;SDS011;41676;44.610;44.078;2023-04-10T05:50:51;11.70;;;4.90;;
55756;SDS011;41676;44.610;44.078;2023-04-10T05:55:52;14.75;;;4.47;;
55756;SDS011;41676;44.610;44.078;2023-04-10T06:00:53;6.15;;;4.20;;
55756;SDS011;41676;44.610;44.078;2023-04-10T06:05:55;13.30;;;3.90;;
55756;SDS011;41676;44.610;44.078;2023-04-10T06:10:57;10.25;;;4.50;;
55756;SDS011;41676;44.610;44.078;2023-04-10T06:15:57;7.53;;;3.50;;
55756;SDS011;41676;44.610;44.078;2023-04-10T06:20:58;6.00;;;3.35;;
55756;SDS011;41676;44.610;44.078;2023-04-10T06:26:01;10.77;;;3.47;;
55756;SDS011;41676;44.610;44.078;2023-04-10T06:31:05;6.88;;;3.45;;
55756;SDS011;41676;44.610;44.078;2023-04-10T06:36:06;8.48;;;3.42;;
55756;SDS011;41676;44.610;44.078;2023-04-10T06:41:07;7.38;;;3.55;;
55756;SDS011;41676;44.610;44.078;2023-04-10T06:46:08;6.93;;;3.33;;
55756;SDS011;41676;44.610;44.078;2023-04-10T06:51:09;9.93;;;3.30;;
55756;SDS011;41676;44.610;44.078;2023-04-10T06:56:10;10.40;;;3.15;;
55756;SDS011;41676;44.610;44.078;2023-04-10T07:01:11;9.80;;;3.13;;
55756;SDS011;41676;44.610;44.078;2023-04-10T07:06:11;7.80;;;3.22;;
55756;SDS011;41676;44.610;44.078;2023-04-10T07:11:12;8.15;;;3.13;;
55756;SDS011;41676;44.610;44.078;2023-04-10T07:16:13;7.22;;;3.10;;
55756;SDS011;41676;44.610;44.078;2023-04-10T07:21:15;8.75;;;3.28;;
55756;SDS011;41676;44.610;44.078;2023-04-10T07:26:16;8.93;;;3.15;;
55756;SDS011;41676;44.610;44.078;2023-04-10T07:31:17;10.27;;;3.33;;
55756;SDS011;41676;44.610;44.078;2023-04-10T07:36:17;7.15;;;3.35;;
55756;SDS011;41676;44.610;44.078;2023-04-10T07:41:18;16.90;;;3.67;;
55756;SDS011;41676;44.610;44.078;2023-04-10T07:46:19;8.48;;;3.25;;
55756;SDS011;41676;44.610;44.078;2023-04-10T07:51:20;8.73;;;3.10;;
55756;SDS011;41676;44.610;44.078;2023-04-10T07:56:21;16.58;;;3.22;;
55756;SDS011;41676;44.610;44.078;2023-04-10T08:01:22;5.82;;;2.90;;
55756;SDS011;41676;44.610;44.078;2023-04-10T08:06:23;7.53;;;2.70;;
55756;SDS011;41676;44.610;44.078;2023-04-10T08:11:24;11.63;;;3.25;;
55756;SDS011;41676;44.610;44.078;2023-04-10T08:16:29;6.32;;;3.05;;
55756;SDS011;41676;44.610;44.078;2023-04-10T08:21:31;10.40;;;3.55;;
55756;SDS011;41676;44.610;44.078;2023-04-10T08:26:31;7.85;;;2.90;;
55756;SDS011;41676;44.610;44.078;2023-04-10T08:31:32;8.07;;;3.47;;
55756;SDS011;41676;44.610;44.078;2023-04-10T08:36:33;9.38;;;3.58;;
55756;SDS011;41676;44.610;44.078;2023-04-10T08:41:34;10.75;;;3.85;;
55756;SDS011;41676;44.610;44.078;2023-04-10T08:46:35;11.38;;;3.58;;
55756;SDS011;41676;44.610;44.078;2023-04-10T08:56:50;8.75;;;3.28;;
55756;SDS011;41676;44.610;44.078;2023-04-10T09:01:53;6.77;;;3.20;;
55756;SDS011;41676;44.610;44.078;2023-04-10T09:06:54;6.95;;;2.75;;
55756;SDS011;41676;44.610;44.078;2023-04-10T09:11:55;7.95;;;2.72;;
55756;SDS011;41676;44.610;44.078;2023-04-10T09:22:28;13.65;;;2.80;;
55756;SDS011;41676;44.610;44.078;2023-04-10T09:27:34;9.30;;;3.35;;
55756;SDS011;41676;44.610;44.078;2023-04-10T09:37:44;9.23;;;3.03;;
55756;SDS011;41676;44.610;44.078;2023-04-10T09:42:45;10.60;;;2.90;;
55756;SDS011;41676;44.610;44.078;2023-04-10T09:53:20;9.27;;;2.83;;
55756;SDS011;41676;44.610;44.078;2023-04-10T09:58:20;11.30;;;3.15;;
55756;SDS011;41676;44.610;44.078;2023-04-10T10:03:24;8.05;;;2.97;;
55756;SDS011;41676;44.610;44.078;2023-04-10T10:08:25;10.65;;;3.08;;
55756;SDS011;41676;44.610;44.078;2023-04-10T10:13:27;11.00;;;2.97;;
55756;SDS011;41676;44.610;44.078;2023-04-10T10:18:38;9.75;;;3.25;;
55756;SDS011;41676;44.610;44.078;2023-04-10T10:23:54;8.63;;;3.00;;
55756;SDS011;41676;44.610;44.078;2023-04-10T10:28:58;9.25;;;2.80;;
55756;SDS011;41676;44.610;44.078;2023-04-10T10:34:06;8.27;;;2.28;;
55756;SDS011;41676;44.610;44.078;2023-04-10T10:39:21;18.88;;;2.70;;
55756;SDS011;41676;44.610;44.078;2023-04-10T10:44:44;8.18;;;2.10;;
55756;SDS011;41676;44.610;44.078;2023-04-10T10:49:59;8.32;;;2.63;;
55756;SDS011;41676;44.610;44.078;2023-04-10T11:00:24;8.80;;;2.57;;
55756;SDS011;41676;44.610;44.078;2023-04-10T11:11:08;7.63;;;2.53;;
55756;SDS011;41676;44.610;44.078;2023-04-10T11:16:11;11.07;;;2.72;;
55756;SDS011;41676;44.610;44.078;2023-04-10T11:31:35;8.88;;;2.33;;
55756;SDS011;41676;44.610;44.078;2023-04-10T11:36:37;7.72;;;1.88;;
55756;SDS011;41676;44.610;44.078;2023-04-10T11:41:40;9.85;;;2.50;;
55756;SDS011;41676;44.610;44.078;2023-04-10T11:46:43;8.75;;;2.22;;
55756;SDS011;41676;44.610;44.078;2023-04-10T11:51:50;9.02;;;2.35;;
55756;SDS011;41676;44.610;44.078;2023-04-10T11:57:04;13.45;;;2.35;;
55756;SDS011;41676;44.610;44.078;2023-04-10T12:02:09;10.68;;;2.10;;
55756;SDS011;41676;44.610;44.078;2023-04-10T12:07:13;9.68;;;2.47;;
55756;SDS011;41676;44.610;44.078;2023-04-10T12:12:14;7.20;;;1.80;;
55756;SDS011;41676;44.610;44.078;2023-04-10T12:17:15;8.40;;;1.80;;
55756;SDS011;41676;44.610;44.078;2023-04-10T12:22:16;8.43;;;1.95;;
55756;SDS011;41676;44.610;44.078;2023-04-10T12:32:25;7.50;;;1.77;;
55756;SDS011;41676;44.610;44.078;2023-04-10T12:47:50;7.78;;;1.90;;
55756;SDS011;41676;44.610;44.078;2023-04-10T12:53:02;9.98;;;2.03;;
55756;SDS011;41676;44.610;44.078;2023-04-10T12:58:14;7.25;;;1.85;;
55756;SDS011;41676;44.610;44.078;2023-04-10T13:03:27;11.70;;;2.05;;
55756;SDS011;41676;44.610;44.078;2023-04-10T13:11:30;7.13;;;2.00;;
55756;SDS011;41676;44.610;44.078;2023-04-10T13:16:31;5.00;;;1.85;;
55756;SDS011;41676;44.610;44.078;2023-04-10T13:21:31;8.48;;;2.70;;
55756;SDS011;41676;44.610;44.078;2023-04-10T13:26:32;7.03;;;2.40;;
55756;SDS011;41676;44.610;44.078;2023-04-10T13:31:33;8.52;;;2.30;;
55756;SDS011;41676;44.610;44.078;2023-04-10T13:36:34;6.55;;;1.88;;
55756;SDS011;41676;44.610;44.078;2023-04-10T13:41:34;9.27;;;2.50;;
55756;SDS011;41676;44.610;44.078;2023-04-10T13:46:35;9.73;;;2.22;;
55756;SDS011;41676;44.610;44.078;2023-04-10T13:51:36;10.30;;;2.33;;
55756;SDS011;41676;44.610;44.078;2023-04-10T13:56:37;10.65;;;2.40;;
55756;SDS011;41676;44.610;44.078;2023-04-10T14:01:37;8.93;;;2.10;;
55756;SDS011;41676;44.610;44.078;2023-04-10T14:06:38;7.85;;;1.90;;
55756;SDS011;41676;44.610;44.078;2023-04-10T14:11:39;9.27;;;2.20;;
55756;SDS011;41676;44.610;44.078;2023-04-10T14:16:40;10.48;;;2.33;;
55756;SDS011;41676;44.610;44.078;2023-04-10T14:21:41;11.13;;;2.17;;
55756;SDS011;41676;44.610;44.078;2023-04-10T14:26:43;8.13;;;2.38;;
55756;SDS011;41676;44.610;44.078;2023-04-10T14:31:44;18.98;;;3.60;;
55756;SDS011;41676;44.610;44.078;2023-04-10T14:36:45;15.02;;;3.40;;
55756;SDS011;41676;44.610;44.078;2023-04-10T14:41:46;13.98;;;3.63;;
55756;SDS011;41676;44.610;44.078;2023-04-10T14:46:46;15.38;;;2.97;;
55756;SDS011;41676;44.610;44.078;2023-04-10T14:51:47;9.57;;;2.60;;
55756;SDS011;41676;44.610;44.078;2023-04-10T14:56:49;14.00;;;2.70;;
55756;SDS011;41676;44.610;44.078;2023-04-10T15:01:50;18.13;;;2.65;;
55756;SDS011;41676;44.610;44.078;2023-04-10T15:06:52;9.02;;;2.10;;
55756;SDS011;41676;44.610;44.078;2023-04-10T15:11:53;18.73;;;2.80;;
55756;SDS011;41676;44.610;44.078;2023-04-10T15:16:55;12.98;;;2.78;;
55756;SDS011;41676;44.610;44.078;2023-04-10T15:21:56;17.92;;;3.03;;
55756;SDS011;41676;44.610;44.078;2023-04-10T15:26:57;15.80;;;3.17;;
55756;SDS011;41676;44.610;44.078;2023-04-10T15:31:59;25.40;;;3.63;;
55756;SDS011;41676;44.610;44.078;2023-04-10T15:37:00;22.23;;;3.22;;
55756;SDS011;41676;44.610;44.078;2023-04-10T15:42:01;18.20;;;3.15;;
55756;SDS011;41676;44.610;44.078;2023-04-10T15:47:04;13.80;;;3.00;;
55756;SDS011;41676;44.610;44.078;2023-04-10T15:52:05;19.15;;;2.80;;
55756;SDS011;41676;44.610;44.078;2023-04-10T15:57:06;20.83;;;2.92;;
55756;SDS011;41676;44.610;44.078;2023-04-10T16:02:07;22.40;;;3.80;;
55756;SDS011;41676;44.610;44.078;2023-04-10T16:07:07;22.35;;;3.25;;
55756;SDS011;41676;44.610;44.078;2023-04-10T16:12:09;21.00;;;3.25;;
55756;SDS011;41676;44.610;44.078;2023-04-10T16:17:10;16.60;;;3.22;;
55756;SDS011;41676;44.610;44.078;2023-04-10T16:22:11;22.15;;;3.13;;
55756;SDS011;41676;44.610;44.078;2023-04-10T16:27:12;29.58;;;3.95;;
55756;SDS011;41676;44.610;44.078;2023-04-10T16:32:12;40.67;;;4.32;;
55756;SDS011;41676;44.610;44.078;2023-04-10T16:37:13;24.05;;;3.70;;
55756;SDS011;41676;44.610;44.078;2023-04-10T16:42:14;33.00;;;4.10;;
55756;SDS011;41676;44.610;44.078;2023-04-10T16:47:15;29.73;;;3.45;;
55756;SDS011;41676;44.610;44.078;2023-04-10T16:52:15;56.92;;;4.15;;
55756;SDS011;41676;44.610;44.078;2023-04-10T16:57:16;40.45;;;3.92;;
55756;SDS011;41676;44.610;44.078;2023-04-10T17:02:17;37.70;;;3.92;;
55756;SDS011;41676;44.610;44.078;2023-04-10T17:07:18;34.10;;;5.60;;
55756;SDS011;41676;44.610;44.078;2023-04-10T17:12:18;39.53;;;5.35;;
55756;SDS011;41676;44.610;44.078;2023-04-10T17:17:19;39.22;;;4.32;;
55756;SDS011;41676;44.610;44.078;2023-04-10T17:22:20;34.65;;;4.35;;
55756;SDS011;41676;44.610;44.078;2023-04-10T17:27:22;22.45;;;3.08;;
55756;SDS011;41676;44.610;44.078;2023-04-10T17:32:23;27.50;;;3.45;;
55756;SDS011;41676;44.610;44.078;2023-04-10T17:37:23;25.05;;;3.72;;
55756;SDS011;41676;44.610;44.078;2023-04-10T17:42:24;19.00;;;2.85;;
55756;SDS011;41676;44.610;44.078;2023-04-10T17:47:26;24.83;;;4.88;;
55756;SDS011;41676;44.610;44.078;2023-04-10T17:52:27;23.95;;;4.00;;
55756;SDS011;41676;44.610;44.078;2023-04-10T17:57:27;17.10;;;2.80;;
55756;SDS011;41676;44.610;44.078;2023-04-10T18:02:28;10.30;;;2.20;;
55756;SDS011;41676;44.610;44.078;2023-04-10T18:07:29;18.60;;;2.20;;
55756;SDS011;41676;44.610;44.078;2023-04-10T18:12:30;9.38;;;1.92;;
55756;SDS011;41676;44.610;44.078;2023-04-10T18:17:31;8.00;;;2.20;;
55756;SDS011;41676;44.610;44.078;2023-04-10T18:22:32;8.65;;;2.05;;
55756;SDS011;41676;44.610;44.078;2023-04-10T18:27:33;13.10;;;2.22;;
55756;SDS011;41676;44.610;44.078;2023-04-10T18:32:35;9.00;;;2.10;;
55756;SDS011;41676;44.610;44.078;2023-04-10T18:37:36;7.57;;;2.05;;
55756;SDS011;41676;44.610;44.078;2023-04-10T18:42:39;9.23;;;2.22;;
55756;SDS011;41676;44.610;44.078;2023-04-10T18:47:40;11.27;;;2.35;;
55756;SDS011;41676;44.610;44.078;2023-04-10T18:52:41;7.38;;;2.05;;
55756;SDS011;41676;44.610;44.078;2023-04-10T18:57:42;9.00;;;2.53;;
55756;SDS011;41676;44.610;44.078;2023-04-10T19:02:42;11.00;;;2.42;;
55756;SDS011;41676;44.610;44.078;2023-04-10T19:07:43;9.07;;;2.60;;
55756;SDS011;41676;44.610;44.078;2023-04-10T19:12:44;7.75;;;2.47;;
55756;SDS011;41676;44.610;44.078;2023-04-10T19:17:45;10.40;;;2.83;;
55756;SDS011;41676;44.610;44.078;2023-04-10T19:22:45;6.72;;;3.00;;
55756;SDS011;41676;44.610;44.078;2023-04-10T19:27:46;13.25;;;3.30;;
55756;SDS011;41676;44.610;44.078;2023-04-10T19:32:47;9.95;;;3.13;;
55756;SDS011;41676;44.610;44.078;2023-04-10T19:37:48;10.88;;;3.35;;
55756;SDS011;41676;44.610;44.078;2023-04-10T19:42:49;11.20;;;3.10;;
55756;SDS011;41676;44.610;44.078;2023-04-10T19:47:49;9.52;;;3.28;;
55756;SDS011;41676;44.610;44.078;2023-04-10T19:52:50;7.85;;;2.78;;
55756;SDS011;41676;44.610;44.078;2023-04-10T19:57:51;13.63;;;3.22;;
55756;SDS011;41676;44.610;44.078;2023-04-10T20:02:52;12.05;;;3.72;;
55756;SDS011;41676;44.610;44.078;2023-04-10T20:07:53;9.32;;;2.85;;
55756;SDS011;41676;44.610;44.078;2023-04-10T20:12:54;9.60;;;2.45;;
55756;SDS011;41676;44.610;44.078;2023-04-10T20:17:56;12.60;;;2.78;;
55756;SDS011;41676;44.610;44.078;2023-04-10T20:22:57;8.35;;;2.80;;
55756;SDS011;41676;44.610;44.078;2023-04-10T20:27:59;7.68;;;2.80;;
55756;SDS011;41676;44.610;44.078;2023-04-10T20:33:02;6.07;;;2.75;;
55756;SDS011;41676;44.610;44.078;2023-04-10T20:38:04;10.95;;;3.30;;
55756;SDS011;41676;44.610;44.078;2023-04-10T20:43:05;11.63;;;3.17;;
55756;SDS011;41676;44.610;44.078;2023-04-10T20:48:13;14.48;;;3.17;;
55756;SDS011;41676;44.610;44.078;2023-04-10T20:53:14;13.15;;;2.92;;
55756;SDS011;41676;44.610;44.078;2023-04-10T20:58:15;8.82;;;3.35;;
55756;SDS011;41676;44.610;44.078;2023-04-10T21:03:16;6.32;;;2.92;;
55756;SDS011;41676;44.610;44.078;2023-04-10T21:08:17;7.53;;;3.30;;
55756;SDS011;41676;44.610;44.078;2023-04-10T21:13:18;10.48;;;3.40;;
55756;SDS011;41676;44.610;44.078;2023-04-10T21:18:19;10.65;;;3.63;;
55756;SDS011;41676;44.610;44.078;2023-04-10T21:23:20;9.50;;;3.42;;
55756;SDS011;41676;44.610;44.078;2023-04-10T21:28:20;11.63;;;3.80;;
55756;SDS011;41676;44.610;44.078;2023-04-10T21:33:21;7.93;;;3.13;;
55756;SDS011;41676;44.610;44.078;2023-04-10T21:38:22;10.90;;;3.25;;
55756;SDS011;41676;44.610;44.078;2023-04-10T21:43:23;14.70;;;4.20;;
55756;SDS011;41676;44.610;44.078;2023-04-10T21:48:24;12.30;;;3.88;;
55756;SDS011;41676;44.610;44.078;2023-04-10T21:53:24;10.00;;;4.15;;
55756;SDS011;41676;44.610;44.078;2023-04-10T21:58:25;12.80;;;4.43;;
55756;SDS011;41676;44.610;44.078;2023-04-10T22:03:28;12.07;;;4.03;;
55756;SDS011;41676;44.610;44.078;2023-04-10T22:08:29;12.90;;;4.63;;
55756;SDS011;41676;44.610;44.078;2023-04-10T22:13:31;9.77;;;4.20;;
55756;SDS011;41676;44.610;44.078;2023-04-10T22:18:31;11.77;;;4.65;;
55756;SDS011;41676;44.610;44.078;2023-04-10T22:23:32;10.98;;;4.25;;
55756;SDS011;41676;44.610;44.078;2023-04-10T22:28:33;10.88;;;4.45;;
55756;SDS011;41676;44.610;44.078;2023-04-10T22:33:34;14.52;;;4.13;;
55756;SDS011;41676;44.610;44.078;2023-04-10T22:38:36;15.98;;;4.43;;
55756;SDS011;41676;44.610;44.078;2023-04-10T22:43:40;18.42;;;5.18;;
55756;SDS011;41676;44.610;44.078;2023-04-10T22:48:41;13.85;;;4.50;;
55756;SDS011;41676;44.610;44.078;2023-04-10T22:53:42;16.25;;;4.55;;
55756;SDS011;41676;44.610;44.078;2023-04-10T22:58:43;17.23;;;4.55;;
55756;SDS011;41676;44.610;44.078;2023-04-10T23:03:44;9.80;;;4.93;;
55756;SDS011;41676;44.610;44.078;2023-04-10T23:08:44;18.70;;;5.60;;
55756;SDS011;41676;44.610;44.078;2023-04-10T23:13:45;15.32;;;4.65;;
55756;SDS011;41676;44.610;44.078;2023-04-10T23:18:48;14.57;;;4.70;;
55756;SDS011;41676;44.610;44.078;2023-04-10T23:23:49;12.82;;;4.97;;
55756;SDS011;41676;44.610;44.078;2023-04-10T23:28:50;16.83;;;4.20;;
55756;SDS011;41676;44.610;44.078;2023-04-10T23:33:52;10.40;;;4.55;;
55756;SDS011;41676;44.610;44.078;2023-04-10T23:38:53;11.35;;;4.30;;
55756;SDS011;41676;44.610;44.078;2023-04-10T23:43:53;15.27;;;4.35;;
55756;SDS011;41676;44.610;44.078;2023-04-10T23:48:56;10.40;;;4.45;;
55756;SDS011;41676;44.610;44.078;2023-04-10T23:53:57;12.63;;;4.70;;
55756;SDS011;41676;44.610;44.078;2023-04-10T23:58:59;22.17;;;4.15;;
